TimeCST,TemperatureF,Dew PointF,Humidity,Sea Level PressureIn,VisibilityMPH,Wind Direction,Wind SpeedMPH,Gust SpeedMPH,PrecipitationIn,Events,Conditions,WindDirDegrees,DateUTC
12:53 AM,63.0,51.1,65,29.80,10.0,South,15.0,-,N/A,,Clear,190,2012-11-11 06:53:00
1:53 AM,63.0,52.0,67,29.82,10.0,South,13.8,-,N/A,,Partly Cloudy,190,2012-11-11 07:53:00
2:53 AM,63.0,52.0,67,29.81,10.0,South,11.5,-,N/A,,Scattered Clouds,180,2012-11-11 08:53:00
3:53 AM,62.1,53.1,72,29.80,10.0,South,12.7,-,N/A,,Partly Cloudy,180,2012-11-11 09:53:00
4:53 AM,62.1,53.1,72,29.78,10.0,South,12.7,-,N/A,,Clear,170,2012-11-11 10:53:00
5:53 AM,63.0,53.1,70,29.76,10.0,South,15.0,-,N/A,,Scattered Clouds,170,2012-11-11 11:53:00
6:53 AM,63.0,53.1,70,29.75,10.0,South,20.7,27.6,N/A,,Partly Cloudy,180,2012-11-11 12:53:00
7:53 AM,64.0,53.1,67,29.73,10.0,South,19.6,33.4,N/A,,Clear,170,2012-11-11 13:53:00
8:53 AM,64.0,54.0,70,29.72,10.0,South,21.9,35.7,0.00,,Mostly Cloudy,180,2012-11-11 14:53:00
10:53 AM,64.9,55.0,70,29.69,10.0,South,20.7,35.7,N/A,,Overcast,180,2012-11-11 16:53:00
11:41 AM,60.8,57.2,88,29.70,1.5,West,18.4,29.9,0.07,Rain,Heavy Rain,260,2012-11-11 17:41:00
11:48 AM,57.2,57.2,100,29.70,1.0,West,15.0,24.2,0.11,Rain,Heavy Rain,280,2012-11-11 17:48:00
12:00 PM,55.4,53.6,94,29.70,1.8,WNW,12.7,25.3,0.03,Rain,Rain,290,2012-11-11 18:00:00
12:05 PM,55.4,53.6,94,29.71,3.0,WNW,12.7,25.3,0.03,Rain,Light Rain,300,2012-11-11 18:05:00
12:32 PM,53.6,51.8,94,29.73,2.5,WNW,15.0,25.3,0.07,Rain,Rain,300,2012-11-11 18:32:00
12:40 PM,51.8,51.8,100,29.74,2.0,WNW,12.7,25.3,0.09,Rain,Rain,300,2012-11-11 18:40:00
12:53 PM,51.1,50.0,96,29.75,1.2,WNW,11.5,21.9,0.17,Rain,Heavy Rain,290,2012-11-11 18:53:00
1:06 PM,51.8,50.0,94,29.76,3.0,WNW,10.4,19.6,0.02,Rain,Light Rain,290,2012-11-11 19:06:00
1:22 PM,50.0,48.2,94,29.75,2.5,WNW,11.5,-,0.04,Rain,Light Rain,290,2012-11-11 19:22:00
1:30 PM,50.0,48.2,94,29.75,4.0,NW,11.5,19.6,0.05,Rain,Light Rain,310,2012-11-11 19:30:00
1:53 PM,48.9,48.0,97,29.77,5.0,WNW,8.1,-,0.06,Rain,Light Rain,300,2012-11-11 19:53:00
2:05 PM,48.2,48.2,100,29.81,4.0,WNW,8.1,-,0.03,Rain,Rain,290,2012-11-11 20:05:00
2:15 PM,48.2,46.4,93,29.79,3.0,WNW,8.1,-,0.05,Rain,Rain,300,2012-11-11 20:15:00
2:37 PM,46.4,46.4,100,29.79,10.0,WNW,5.8,-,0.06,Rain,Light Rain,300,2012-11-11 20:37:00
2:53 PM,46.0,45.0,96,29.79,3.0,WNW,8.1,-,0.09,Rain,Rain,300,2012-11-11 20:53:00
3:02 PM,46.4,44.6,93,29.80,3.0,West,8.1,-,0.03,Rain,Rain,270,2012-11-11 21:02:00
3:27 PM,42.8,41.0,93,29.82,3.0,WNW,12.7,-,0.09,Rain,Rain,300,2012-11-11 21:27:00
3:51 PM,41.0,39.2,93,29.86,3.0,WNW,11.5,-,0.17,Rain,Rain,300,2012-11-11 21:51:00
3:53 PM,41.0,39.0,93,29.86,3.0,WNW,8.1,-,0.17,Rain,Rain,300,2012-11-11 21:53:00
4:02 PM,41.0,39.2,93,29.88,2.5,WNW,10.4,16.1,0.03,Rain,Rain,290,2012-11-11 22:02:00
4:27 PM,39.2,37.4,93,29.88,3.0,WNW,11.5,-,0.16,Rain,Heavy Rain,290,2012-11-11 22:27:00
4:40 PM,37.4,37.4,100,29.88,4.0,WNW,8.1,-,0.20,Rain,Rain,290,2012-11-11 22:40:00
4:53 PM,37.9,36.0,93,29.91,5.0,West,8.1,-,0.23,Rain,Rain,270,2012-11-11 22:53:00
5:01 PM,37.4,35.6,93,29.89,5.0,WNW,5.8,-,0.02,Rain,Rain,290,2012-11-11 23:01:00
5:09 PM,37.4,35.6,93,29.90,6.0,West,5.8,-,0.04,Rain,Light Rain,280,2012-11-11 23:09:00
5:45 PM,37.4,35.6,93,29.94,7.0,WNW,13.8,20.7,0.09,Rain,Light Rain,290,2012-11-11 23:45:00
5:53 PM,36.0,34.0,93,29.94,7.0,WNW,9.2,20.7,0.11,Rain,Rain,300,2012-11-11 23:53:00
6:07 PM,35.6,33.8,93,29.91,9.0,WNW,9.2,-,0.01,Rain,Light Rain,300,2012-11-12 00:07:00
6:53 PM,34.0,33.1,96,29.99,6.0,WNW,15.0,-,0.02,Snow,Light Snow,290,2012-11-12 00:53:00
7:53 PM,33.1,30.9,92,30.01,10.0,WNW,12.7,18.4,0.01,,Overcast,290,2012-11-12 01:53:00
8:07 PM,33.8,30.2,87,30.01,10.0,WNW,12.7,19.6,N/A,,Overcast,290,2012-11-12 02:07:00
8:31 PM,33.8,28.4,81,30.01,10.0,NW,10.4,-,N/A,,Overcast,310,2012-11-12 02:31:00
8:53 PM,33.1,28.9,85,30.04,10.0,WNW,12.7,19.6,N/A,,Overcast,290,2012-11-12 02:53:00
9:53 PM,32.0,26.1,79,30.08,10.0,NW,12.7,21.9,N/A,,Overcast,310,2012-11-12 03:53:00
10:53 PM,30.9,24.1,76,30.11,10.0,WNW,10.4,20.7,N/A,,Overcast,300,2012-11-12 04:53:00
11:38 PM,30.2,21.2,69,30.08,10.0,WNW,10.4,18.4,N/A,,Partly Cloudy,300,2012-11-12 05:38:00
11:53 PM,28.9,21.0,72,30.09,10.0,WNW,15.0,25.3,N/A,,Partly Cloudy,290,2012-11-12 05:53:00